createdAt,value
2022-12-31T00:00:49.449Z,11.96
2022-12-31T00:01:49.540Z,11.93
2022-12-31T00:02:49.822Z,11.99
2022-12-31T00:03:52.295Z,11.99
2022-12-31T00:04:49.291Z,11.89
2022-12-31T00:05:49.294Z,11.93
2022-12-31T00:06:49.282Z,11.86
2022-12-31T00:07:49.339Z,11.89
2022-12-31T00:08:51.893Z,11.86
2022-12-31T00:09:49.295Z,11.97
2022-12-31T00:10:49.346Z,11.91
2022-12-31T00:11:49.467Z,11.93
2022-12-31T00:12:49.295Z,11.93
2022-12-31T00:13:49.307Z,11.95
2022-12-31T00:14:52.143Z,11.93
2022-12-31T00:15:49.332Z,12.03
2022-12-31T00:16:49.511Z,11.97
2022-12-31T00:17:49.306Z,11.99
2022-12-31T00:18:49.315Z,11.97
2022-12-31T00:19:52.082Z,11.93
2022-12-31T00:20:49.301Z,11.91
2022-12-31T00:21:49.310Z,12.02
2022-12-31T00:22:49.312Z,12.03
2022-12-31T00:23:49.348Z,12.07
2022-12-31T00:24:49.340Z,12.03
2022-12-31T00:25:52.455Z,11.97
2022-12-31T00:26:49.369Z,12
2022-12-31T00:27:49.326Z,11.95
2022-12-31T00:28:49.356Z,12
2022-12-31T00:29:49.323Z,12.02
2022-12-31T00:30:52.802Z,12.02
2022-12-31T00:31:49.326Z,12.02
2022-12-31T00:32:49.355Z,12.12
2022-12-31T00:33:49.340Z,12.07
2022-12-31T00:34:49.343Z,12.1
2022-12-31T00:35:49.350Z,12.07
2022-12-31T00:36:52.146Z,12.03
2022-12-31T00:37:49.187Z,12.05
2022-12-31T00:38:49.341Z,12.02
2022-12-31T00:39:49.346Z,12.08
2022-12-31T00:40:49.360Z,12.05
2022-12-31T00:41:52.214Z,12.12
2022-12-31T00:42:49.368Z,12.02
2022-12-31T00:43:49.361Z,11.97
2022-12-31T00:44:49.356Z,12.12
2022-12-31T00:45:49.503Z,12.1
2022-12-31T00:46:49.113Z,12.17
2022-12-31T00:47:49.377Z,12.11
2022-12-31T00:48:49.369Z,12.14
2022-12-31T00:49:49.373Z,12.17
2022-12-31T00:50:49.400Z,12.23
2022-12-31T00:51:49.356Z,12.18
2022-12-31T00:52:52.133Z,12.18
2022-12-31T00:53:49.368Z,12.3
2022-12-31T00:54:49.376Z,12.14
2022-12-31T00:55:49.383Z,12.28
2022-12-31T00:56:49.370Z,12.28
2022-12-31T00:57:49.407Z,12.26
2022-12-31T00:58:49.390Z,12.12
2022-12-31T00:59:49.486Z,12.15
2022-12-31T01:00:49.401Z,12.23
2022-12-31T01:01:49.868Z,12.29
2022-12-31T01:02:49.858Z,12.3
2022-12-31T01:03:52.494Z,12.26
2022-12-31T01:04:49.378Z,12.39
2022-12-31T01:05:49.433Z,12.21
2022-12-31T01:06:49.400Z,12.29
2022-12-31T01:07:49.487Z,12.29
2022-12-31T01:08:49.387Z,12.43
2022-12-31T01:09:49.387Z,12.4
2022-12-31T01:10:49.419Z,12.36
2022-12-31T01:11:49.410Z,12.39
2022-12-31T01:12:49.388Z,12.4
2022-12-31T01:13:49.448Z,12.35
2022-12-31T01:14:52.304Z,12.4
2022-12-31T01:15:49.546Z,12.2
2022-12-31T01:16:49.409Z,12.39
2022-12-31T01:17:49.403Z,12.4
2022-12-31T01:18:49.395Z,12.33
2022-12-31T01:19:49.428Z,12.33
2022-12-31T01:20:49.435Z,12.37
2022-12-31T01:21:49.411Z,12.47
2022-12-31T01:22:49.421Z,12.37
2022-12-31T01:23:49.426Z,12.48
2022-12-31T01:24:49.415Z,12.4
2022-12-31T01:25:52.664Z,12.4
2022-12-31T01:26:49.433Z,12.4
2022-12-31T01:27:49.433Z,12.39
2022-12-31T01:28:49.421Z,12.44
2022-12-31T01:29:49.427Z,12.47
2022-12-31T01:30:49.529Z,12.43
2022-12-31T01:31:49.455Z,12.48
2022-12-31T01:32:49.417Z,12.51
2022-12-31T01:33:49.415Z,12.44
2022-12-31T01:34:49.434Z,12.39
2022-12-31T01:35:50.792Z,12.4
2022-12-31T01:36:52.206Z,12.4
2022-12-31T01:37:49.415Z,12.51
2022-12-31T01:38:49.431Z,12.5
2022-12-31T01:39:49.451Z,12.53
2022-12-31T01:40:49.421Z,12.44
2022-12-31T01:41:49.484Z,12.54
2022-12-31T01:42:49.445Z,12.48
2022-12-31T01:43:49.468Z,12.54
2022-12-31T01:44:49.447Z,12.53
2022-12-31T01:45:49.541Z,12.62
2022-12-31T01:46:49.583Z,12.62
2022-12-31T01:47:49.483Z,12.61
2022-12-31T01:48:49.475Z,12.65
2022-12-31T01:49:49.480Z,12.61
2022-12-31T01:50:49.485Z,12.66
2022-12-31T01:51:49.508Z,12.63
2022-12-31T01:52:49.438Z,12.65
2022-12-31T01:53:49.467Z,12.61
2022-12-31T01:54:50.135Z,12.69
2022-12-31T01:55:49.475Z,12.76
2022-12-31T01:56:49.495Z,12.73
2022-12-31T01:57:49.486Z,12.76
2022-12-31T01:58:49.461Z,12.81
2022-12-31T01:59:49.477Z,12.81
2022-12-31T02:00:49.483Z,12.84
2022-12-31T02:01:49.783Z,12.83
2022-12-31T02:02:49.854Z,12.81
2022-12-31T02:03:49.508Z,12.88
2022-12-31T02:04:49.500Z,12.84
2022-12-31T02:05:49.479Z,12.81
2022-12-31T02:06:49.510Z,12.86
2022-12-31T02:07:49.617Z,12.87
2022-12-31T02:08:52.247Z,12.88
2022-12-31T02:09:49.506Z,12.76
2022-12-31T02:10:49.482Z,12.87
2022-12-31T02:11:49.516Z,12.81
2022-12-31T02:12:49.507Z,12.84
2022-12-31T02:13:52.547Z,12.8
2022-12-31T02:14:49.499Z,12.91
2022-12-31T02:15:49.745Z,12.81
2022-12-31T02:16:49.543Z,12.81
2022-12-31T02:17:49.543Z,12.86
2022-12-31T02:18:49.502Z,12.86
2022-12-31T02:19:52.412Z,12.87
2022-12-31T02:20:49.506Z,12.88
2022-12-31T02:21:49.684Z,12.94
2022-12-31T02:22:49.715Z,12.86
2022-12-31T02:23:49.555Z,12.94
2022-12-31T02:24:49.547Z,12.93
2022-12-31T02:25:49.519Z,12.87
2022-12-31T02:26:49.559Z,12.9
2022-12-31T02:27:49.569Z,12.88
2022-12-31T02:28:49.536Z,12.98
2022-12-31T02:29:49.517Z,12.9
2022-12-31T02:30:52.661Z,12.86
2022-12-31T02:31:49.606Z,12.93
2022-12-31T02:32:49.509Z,12.94
2022-12-31T02:33:49.573Z,12.91
2022-12-31T02:34:49.541Z,12.9
2022-12-31T02:35:52.389Z,12.94
2022-12-31T02:36:49.610Z,12.94
2022-12-31T02:37:49.620Z,12.93
2022-12-31T02:38:49.544Z,12.93
2022-12-31T02:39:49.552Z,12.99
2022-12-31T02:40:49.563Z,12.94
2022-12-31T02:41:52.407Z,12.99
2022-12-31T02:42:58.125Z,12.94
2022-12-31T02:43:49.549Z,12.95
2022-12-31T02:44:49.569Z,12.95
2022-12-31T02:45:49.545Z,12.99
2022-12-31T02:46:50.891Z,12.95
2022-12-31T02:47:49.555Z,13.01
2022-12-31T02:48:49.549Z,12.93
2022-12-31T02:49:49.581Z,12.94
2022-12-31T02:50:49.612Z,12.98
2022-12-31T02:51:49.613Z,12.95
2022-12-31T02:52:52.580Z,13.05
2022-12-31T02:53:49.562Z,13.05
2022-12-31T02:54:49.556Z,12.99
2022-12-31T02:55:49.586Z,13.02
2022-12-31T02:56:49.582Z,13.08
2022-12-31T02:57:52.598Z,13.01
2022-12-31T02:58:49.590Z,12.99
2022-12-31T02:59:49.579Z,13.01
2022-12-31T03:00:49.802Z,13.08
2022-12-31T03:01:50.040Z,12.99
2022-12-31T03:02:49.705Z,12.93
2022-12-31T03:03:52.621Z,13.01
2022-12-31T03:04:49.575Z,12.99
2022-12-31T03:05:49.657Z,12.95
2022-12-31T03:06:49.607Z,13.01
2022-12-31T03:07:49.626Z,12.94
2022-12-31T03:08:52.583Z,13.01
2022-12-31T03:09:49.594Z,13.01
2022-12-31T03:10:49.595Z,12.9
2022-12-31T03:11:49.638Z,12.99
2022-12-31T03:12:50.038Z,12.91
2022-12-31T03:13:49.609Z,13.01
2022-12-31T03:14:49.623Z,13.02
2022-12-31T03:15:49.739Z,12.93
2022-12-31T03:16:49.619Z,12.99
2022-12-31T03:17:49.623Z,12.95
2022-12-31T03:18:49.595Z,12.91
2022-12-31T03:19:52.405Z,12.9
2022-12-31T03:20:49.661Z,12.94
2022-12-31T03:21:49.651Z,13.01
2022-12-31T03:22:49.600Z,12.91
2022-12-31T03:23:49.629Z,12.91
2022-12-31T03:24:49.621Z,12.88
2022-12-31T03:25:49.653Z,12.91
2022-12-31T03:26:49.659Z,12.91
2022-12-31T03:27:49.663Z,12.9
2022-12-31T03:28:49.618Z,12.94
2022-12-31T03:29:49.627Z,12.91
2022-12-31T03:30:52.621Z,12.93
2022-12-31T03:31:49.824Z,12.94
2022-12-31T03:32:49.627Z,12.98
2022-12-31T03:33:49.631Z,12.93
2022-12-31T03:34:49.643Z,12.93
2022-12-31T03:35:49.630Z,12.91
2022-12-31T03:36:49.653Z,12.94
2022-12-31T03:37:49.711Z,12.99
2022-12-31T03:38:55.669Z,13.02
2022-12-31T03:39:49.644Z,13.05
2022-12-31T03:40:49.688Z,13.03
2022-12-31T03:41:51.506Z,13.02
2022-12-31T03:42:49.636Z,13.06
2022-12-31T03:43:49.745Z,12.99
2022-12-31T03:44:49.647Z,13.03
2022-12-31T03:45:49.735Z,13.03
2022-12-31T03:46:49.678Z,13.05
2022-12-31T03:47:49.656Z,13.02
2022-12-31T03:48:49.643Z,12.99
2022-12-31T03:49:49.664Z,13.06
2022-12-31T03:50:49.822Z,13.02
2022-12-31T03:51:49.671Z,13.03
2022-12-31T03:52:52.856Z,12.99
2022-12-31T03:53:49.707Z,13.02
2022-12-31T03:54:49.674Z,13.05
2022-12-31T03:55:49.707Z,13.03
2022-12-31T03:56:55.344Z,13.16
2022-12-31T03:57:49.686Z,13.19
2022-12-31T03:58:49.665Z,13.08
2022-12-31T03:59:49.732Z,13.16
2022-12-31T04:00:49.866Z,13.03
2022-12-31T04:01:49.985Z,13.11
2022-12-31T04:02:49.826Z,13.2
2022-12-31T04:03:52.744Z,13.02
2022-12-31T04:04:49.681Z,13.01
2022-12-31T04:05:49.678Z,13.03
2022-12-31T04:06:49.693Z,13.12
2022-12-31T04:07:49.674Z,13.06
2022-12-31T04:08:49.710Z,13.09
2022-12-31T04:09:49.693Z,13.08
2022-12-31T04:10:49.679Z,12.99
2022-12-31T04:11:49.724Z,12.99
2022-12-31T04:12:49.715Z,12.99
2022-12-31T04:13:49.696Z,12.94
2022-12-31T04:14:49.702Z,12.98
2022-12-31T04:15:49.705Z,12.87
2022-12-31T04:16:49.929Z,12.91
2022-12-31T04:17:49.767Z,12.9
2022-12-31T04:18:49.738Z,12.93
2022-12-31T04:19:49.707Z,12.87
2022-12-31T04:20:49.739Z,12.86
2022-12-31T04:21:49.696Z,12.86
2022-12-31T04:22:49.775Z,12.86
2022-12-31T04:23:50.068Z,12.76
2022-12-31T04:24:49.746Z,12.81
2022-12-31T04:25:49.718Z,12.81
2022-12-31T04:26:49.741Z,12.87
2022-12-31T04:27:49.781Z,12.86
2022-12-31T04:28:49.715Z,12.83
2022-12-31T04:29:49.727Z,12.84
2022-12-31T04:30:49.741Z,12.8
2022-12-31T04:31:49.903Z,12.87
2022-12-31T04:32:49.728Z,12.84
2022-12-31T04:33:49.735Z,12.84
2022-12-31T04:34:49.819Z,12.84
2022-12-31T04:35:52.828Z,12.87
2022-12-31T04:36:49.754Z,12.9
2022-12-31T04:37:49.750Z,12.87
2022-12-31T04:38:49.764Z,12.88
2022-12-31T04:39:49.742Z,12.88
2022-12-31T04:40:49.761Z,12.91
2022-12-31T04:41:49.770Z,12.93
2022-12-31T04:42:49.741Z,12.86
2022-12-31T04:43:49.795Z,12.91
2022-12-31T04:44:49.757Z,13.01
2022-12-31T04:45:50.012Z,12.95
2022-12-31T04:46:52.571Z,12.95
2022-12-31T04:47:49.771Z,13.01
2022-12-31T04:48:49.751Z,12.95
2022-12-31T04:49:49.758Z,12.94
2022-12-31T04:50:49.787Z,12.93
2022-12-31T04:51:49.806Z,12.95
2022-12-31T04:52:49.784Z,13.02
2022-12-31T04:53:49.759Z,12.98
2022-12-31T04:54:49.800Z,12.94
2022-12-31T04:55:49.739Z,12.99
2022-12-31T04:56:49.801Z,12.98
2022-12-31T04:57:52.815Z,13.05
2022-12-31T04:58:49.793Z,13.03
2022-12-31T04:59:49.821Z,12.99
2022-12-31T05:00:49.893Z,13.05
2022-12-31T05:01:50.265Z,12.99
2022-12-31T05:02:51.426Z,13.02
2022-12-31T05:03:49.814Z,12.99
2022-12-31T05:04:49.784Z,12.98
2022-12-31T05:05:49.774Z,12.94
2022-12-31T05:06:49.782Z,12.93
2022-12-31T05:07:49.824Z,12.9
2022-12-31T05:08:52.857Z,12.93
2022-12-31T05:09:49.781Z,12.87
2022-12-31T05:10:49.774Z,12.87
2022-12-31T05:11:49.808Z,12.91
2022-12-31T05:12:49.841Z,12.93
2022-12-31T05:13:52.595Z,12.9
2022-12-31T05:14:49.805Z,12.95
2022-12-31T05:15:49.842Z,12.87
2022-12-31T05:16:50.091Z,12.88
2022-12-31T05:17:49.897Z,12.9
2022-12-31T05:18:49.808Z,12.9
2022-12-31T05:19:52.864Z,12.87
2022-12-31T05:20:49.816Z,12.86
2022-12-31T05:21:49.814Z,12.88
2022-12-31T05:22:49.819Z,12.9
2022-12-31T05:23:49.847Z,12.87
2022-12-31T05:24:53.186Z,12.84
2022-12-31T05:25:49.886Z,12.9
2022-12-31T05:26:49.835Z,12.91
2022-12-31T05:27:49.853Z,12.93
2022-12-31T05:28:49.915Z,13.02
2022-12-31T05:29:49.849Z,12.93
2022-12-31T05:30:52.804Z,12.93
2022-12-31T05:31:49.878Z,12.94
2022-12-31T05:32:49.852Z,12.93
2022-12-31T05:33:49.843Z,12.94
2022-12-31T05:34:49.825Z,12.94
2022-12-31T05:35:52.765Z,12.95
2022-12-31T05:36:49.834Z,12.88
2022-12-31T05:37:49.847Z,12.9
2022-12-31T05:38:49.845Z,12.94
2022-12-31T05:39:49.868Z,12.99
2022-12-31T05:40:49.672Z,12.91
2022-12-31T05:41:49.854Z,12.94
2022-12-31T05:42:49.880Z,12.95
2022-12-31T05:43:49.830Z,13.09
2022-12-31T05:44:49.931Z,12.95
2022-12-31T05:45:49.977Z,12.95
2022-12-31T05:46:52.873Z,12.95
2022-12-31T05:47:49.895Z,13.01
2022-12-31T05:48:49.867Z,13.03
2022-12-31T05:49:49.844Z,13.03
2022-12-31T05:50:49.875Z,13.06
2022-12-31T05:51:49.895Z,13.02
2022-12-31T05:52:55.471Z,13.06
2022-12-31T05:53:49.852Z,13.06
2022-12-31T05:54:49.867Z,13.03
2022-12-31T05:55:49.963Z,13.03
2022-12-31T05:56:49.874Z,13.09
2022-12-31T05:57:50.945Z,13.02
2022-12-31T05:58:49.880Z,13.05
2022-12-31T05:59:49.859Z,13.13
2022-12-31T06:00:49.918Z,13.17
2022-12-31T06:01:49.880Z,13.02
2022-12-31T06:02:50.080Z,13.13
2022-12-31T06:03:50.090Z,13.11
2022-12-31T06:04:49.879Z,13.06
2022-12-31T06:05:49.876Z,13.12
2022-12-31T06:06:49.892Z,13.12
2022-12-31T06:07:49.936Z,13.12
2022-12-31T06:08:52.741Z,13.01
2022-12-31T06:09:49.879Z,13.19
2022-12-31T06:10:49.930Z,13.16
2022-12-31T06:11:49.888Z,13.09
2022-12-31T06:12:49.887Z,13.16
2022-12-31T06:13:49.740Z,13.08
2022-12-31T06:14:50.599Z,13.12
2022-12-31T06:15:50.028Z,13.06
2022-12-31T06:16:49.933Z,13.16
2022-12-31T06:17:50.009Z,13.19
2022-12-31T06:18:49.900Z,13.03
2022-12-31T06:19:52.962Z,13.17
2022-12-31T06:20:49.898Z,13.03
2022-12-31T06:21:49.910Z,13.01
2022-12-31T06:22:49.912Z,13.08
2022-12-31T06:23:49.947Z,13.08
2022-12-31T06:24:49.897Z,13.13
2022-12-31T06:25:49.983Z,13.08
2022-12-31T06:26:49.924Z,13.01
2022-12-31T06:27:49.905Z,13.11
2022-12-31T06:28:49.968Z,12.98
2022-12-31T06:29:49.907Z,13.02
2022-12-31T06:30:52.896Z,12.93
2022-12-31T06:31:49.944Z,12.99
2022-12-31T06:32:49.964Z,13.09
2022-12-31T06:33:50.130Z,12.95
2022-12-31T06:34:49.943Z,12.98
2022-12-31T06:35:49.964Z,12.9
2022-12-31T06:36:49.956Z,12.9
2022-12-31T06:37:49.951Z,12.95
2022-12-31T06:38:49.942Z,12.91
2022-12-31T06:39:50.005Z,12.86
2022-12-31T06:40:52.977Z,12.98
2022-12-31T06:41:49.931Z,12.88
2022-12-31T06:42:53.360Z,12.91
2022-12-31T06:43:49.980Z,12.93
2022-12-31T06:44:49.959Z,12.95
2022-12-31T06:45:49.953Z,12.9
2022-12-31T06:46:50.065Z,12.98
2022-12-31T06:47:49.969Z,12.86
2022-12-31T06:48:50.003Z,12.95
2022-12-31T06:49:50.169Z,12.87
2022-12-31T06:50:49.972Z,12.86
2022-12-31T06:51:50.026Z,12.88
2022-12-31T06:52:49.986Z,12.84
2022-12-31T06:53:49.985Z,12.84
2022-12-31T06:54:49.989Z,12.9
2022-12-31T06:55:50.000Z,12.86
2022-12-31T06:56:49.961Z,12.86
2022-12-31T06:57:49.968Z,12.93
2022-12-31T06:58:50.095Z,12.88
2022-12-31T06:59:50.085Z,12.88
2022-12-31T07:00:49.975Z,12.84
2022-12-31T07:01:50.591Z,12.93
2022-12-31T07:02:53.477Z,12.9
2022-12-31T07:03:50.023Z,12.86
2022-12-31T07:04:50.029Z,12.87
2022-12-31T07:05:50.125Z,12.86
2022-12-31T07:06:49.998Z,12.84
2022-12-31T07:07:52.784Z,12.86
2022-12-31T07:08:50.012Z,12.86
2022-12-31T07:09:49.979Z,12.86
2022-12-31T07:10:49.984Z,12.9
2022-12-31T07:11:50.019Z,12.88
2022-12-31T07:12:50.128Z,12.93
2022-12-31T07:13:53.154Z,12.91
2022-12-31T07:14:50.005Z,12.93
2022-12-31T07:15:50.181Z,12.91
2022-12-31T07:16:50.068Z,12.94
2022-12-31T07:17:49.996Z,13.01
2022-12-31T07:18:50.025Z,13.01
2022-12-31T07:19:58.885Z,13.02
2022-12-31T07:20:50.004Z,13.05
2022-12-31T07:21:50.043Z,13.03
2022-12-31T07:22:50.053Z,12.99
2022-12-31T07:23:50.061Z,13.06
2022-12-31T07:24:53.076Z,13.08
2022-12-31T07:25:50.047Z,13.09
2022-12-31T07:26:58.991Z,13.09
2022-12-31T07:27:50.051Z,13.2
2022-12-31T07:28:50.055Z,13.17
2022-12-31T07:29:52.857Z,13.17
2022-12-31T07:30:50.039Z,13.17
2022-12-31T07:31:50.112Z,13.17
2022-12-31T07:32:50.004Z,13.2
2022-12-31T07:33:50.064Z,13.27
2022-12-31T07:34:50.074Z,13.23
2022-12-31T07:35:52.910Z,13.2
2022-12-31T07:36:50.042Z,13.31
2022-12-31T07:37:50.028Z,13.24
2022-12-31T07:38:50.071Z,13.36
2022-12-31T07:39:50.173Z,13.33
2022-12-31T07:40:57.671Z,13.4
2022-12-31T07:41:50.064Z,13.43
2022-12-31T07:42:50.077Z,13.4
2022-12-31T07:43:50.102Z,13.45
2022-12-31T07:44:50.075Z,13.47
2022-12-31T07:45:50.099Z,13.45
2022-12-31T07:46:53.232Z,13.47
2022-12-31T07:47:50.058Z,13.47
2022-12-31T07:48:50.062Z,13.45
2022-12-31T07:49:50.047Z,13.46
2022-12-31T07:50:50.104Z,13.49
2022-12-31T07:51:53.189Z,13.57
2022-12-31T07:52:50.046Z,13.49
2022-12-31T07:53:50.104Z,13.52
2022-12-31T07:54:50.088Z,13.54
2022-12-31T07:55:50.158Z,13.58
2022-12-31T07:56:50.103Z,13.58
2022-12-31T07:57:52.911Z,13.55
2022-12-31T07:58:50.137Z,13.58
2022-12-31T07:59:50.086Z,13.6
2022-12-31T08:00:50.203Z,13.67
2022-12-31T08:01:50.727Z,13.71
2022-12-31T08:02:53.248Z,13.71
2022-12-31T08:03:50.235Z,13.65
2022-12-31T08:04:50.103Z,13.79
2022-12-31T08:05:50.075Z,13.79
2022-12-31T08:06:50.080Z,13.78
2022-12-31T08:07:50.109Z,13.91
2022-12-31T08:08:50.120Z,13.94
2022-12-31T08:09:50.083Z,13.97
2022-12-31T08:10:50.096Z,14.12
2022-12-31T08:11:50.134Z,14.04
2022-12-31T08:12:50.112Z,14.19
2022-12-31T08:13:54.655Z,14.22
2022-12-31T08:14:50.122Z,14.23
2022-12-31T08:15:50.254Z,14.31
2022-12-31T08:16:50.412Z,14.34
2022-12-31T08:17:50.087Z,14.43
2022-12-31T08:18:50.244Z,14.49
2022-12-31T08:19:50.114Z,14.58
2022-12-31T08:20:50.115Z,14.67
2022-12-31T08:21:50.114Z,14.68
2022-12-31T08:22:50.224Z,14.67
2022-12-31T08:23:50.308Z,14.68
2022-12-31T08:24:52.933Z,14.97
2022-12-31T08:25:49.971Z,14.86
2022-12-31T08:26:57.164Z,14.89
2022-12-31T08:27:50.156Z,14.94
2022-12-31T08:28:50.167Z,14.99
2022-12-31T08:29:50.188Z,14.96
2022-12-31T08:30:50.132Z,14.99
2022-12-31T08:31:50.338Z,14.99
2022-12-31T08:32:50.149Z,15.02
2022-12-31T08:33:50.209Z,15.02
2022-12-31T08:34:50.276Z,15.07
2022-12-31T08:35:52.877Z,15.12
2022-12-31T08:36:50.122Z,15.12
2022-12-31T08:37:50.156Z,14.99
2022-12-31T08:38:50.278Z,15.18
2022-12-31T08:39:50.050Z,15.26
2022-12-31T08:40:50.126Z,15.12
2022-12-31T08:41:50.256Z,15.26
2022-12-31T08:42:50.257Z,15.26
2022-12-31T08:43:50.199Z,15.26
2022-12-31T08:44:50.305Z,15.26
2022-12-31T08:45:50.311Z,15.35
2022-12-31T08:46:53.039Z,15.3
2022-12-31T08:47:52.734Z,15.27
2022-12-31T08:48:50.203Z,15.36
2022-12-31T08:49:50.168Z,15.32
2022-12-31T08:50:50.165Z,15.36
2022-12-31T08:51:50.183Z,15.25
2022-12-31T08:52:53.058Z,15.3
2022-12-31T08:53:50.166Z,15.26
2022-12-31T08:54:50.192Z,15.25
2022-12-31T08:55:50.258Z,15.22
2022-12-31T08:56:55.032Z,15.23
2022-12-31T08:57:53.080Z,15.23
2022-12-31T08:58:50.244Z,15.25
2022-12-31T08:59:50.202Z,15.25
2022-12-31T09:00:50.268Z,15.18
2022-12-31T09:01:50.509Z,15.23
2022-12-31T09:02:52.926Z,15.23
2022-12-31T09:03:50.216Z,15.18
2022-12-31T09:04:50.178Z,15.1
2022-12-31T09:05:50.237Z,15.18
2022-12-31T09:06:50.350Z,15.11
2022-12-31T09:07:50.201Z,15.12
2022-12-31T09:08:50.256Z,15.19
2022-12-31T09:09:50.217Z,15.15
2022-12-31T09:10:50.190Z,15.15
2022-12-31T09:11:50.244Z,15.12
2022-12-31T09:12:50.211Z,15.15
2022-12-31T09:13:50.224Z,15.18
2022-12-31T09:14:50.196Z,15.15
2022-12-31T09:15:50.237Z,15.18
2022-12-31T09:16:52.173Z,15.23
2022-12-31T09:17:50.354Z,15.1
2022-12-31T09:18:50.081Z,15.23
2022-12-31T09:19:50.219Z,15.18
2022-12-31T09:20:50.072Z,15.26
2022-12-31T09:21:50.319Z,15.27
2022-12-31T09:22:50.217Z,15.18
2022-12-31T09:23:50.262Z,15.29
2022-12-31T09:24:50.256Z,15.35
2022-12-31T09:25:50.209Z,15.25
2022-12-31T09:26:50.248Z,15.29
2022-12-31T09:27:50.264Z,15.27
2022-12-31T09:28:50.132Z,15.26
2022-12-31T09:29:53.418Z,15.32
2022-12-31T09:30:50.234Z,15.3
2022-12-31T09:31:50.367Z,15.32
2022-12-31T09:32:51.881Z,15.3
2022-12-31T09:33:50.303Z,15.35
2022-12-31T09:34:50.232Z,15.33
2022-12-31T09:35:50.213Z,15.41
2022-12-31T09:36:50.239Z,15.41
2022-12-31T09:37:50.260Z,15.43
2022-12-31T09:38:50.324Z,15.37
2022-12-31T09:39:50.551Z,15.5
2022-12-31T09:40:53.298Z,15.43
2022-12-31T09:41:50.345Z,15.47
2022-12-31T09:42:50.254Z,15.44
2022-12-31T09:43:51.074Z,15.59
2022-12-31T09:44:50.360Z,15.5
2022-12-31T09:45:50.465Z,15.51
2022-12-31T09:46:50.512Z,15.54
2022-12-31T09:47:50.277Z,15.57
2022-12-31T09:48:50.313Z,15.51
2022-12-31T09:49:50.393Z,15.52
2022-12-31T09:50:50.280Z,15.57
2022-12-31T09:51:53.040Z,15.55
2022-12-31T09:52:50.274Z,15.6
2022-12-31T09:53:50.302Z,15.59
2022-12-31T09:54:50.282Z,15.66
2022-12-31T09:55:50.363Z,15.66
2022-12-31T09:57:01.221Z,15.8
2022-12-31T09:57:50.379Z,15.75
2022-12-31T09:58:50.329Z,15.8
2022-12-31T09:59:50.313Z,15.76
2022-12-31T10:00:50.401Z,15.88
2022-12-31T10:01:50.730Z,15.9
2022-12-31T10:02:53.844Z,15.83
2022-12-31T10:03:52.098Z,15.87
2022-12-31T10:04:50.295Z,15.92
2022-12-31T10:05:50.311Z,15.87
2022-12-31T10:06:50.286Z,15.91
2022-12-31T10:07:57.998Z,15.96
2022-12-31T10:08:50.323Z,15.87
2022-12-31T10:09:50.284Z,16.02
2022-12-31T10:10:50.303Z,15.96
2022-12-31T10:11:50.736Z,15.96
2022-12-31T10:12:50.357Z,15.99
2022-12-31T10:13:53.220Z,15.99
2022-12-31T10:14:52.399Z,16.09
2022-12-31T10:15:50.311Z,16.13
2022-12-31T10:16:50.543Z,16.17
2022-12-31T10:17:50.308Z,16.16
2022-12-31T10:18:52.118Z,16.13
2022-12-31T10:19:50.361Z,16.18
2022-12-31T10:20:50.336Z,16.25
2022-12-31T10:21:50.355Z,16.26
2022-12-31T10:22:50.407Z,16.29
2022-12-31T10:23:50.346Z,16.26
2022-12-31T10:24:53.110Z,16.29
2022-12-31T10:25:53.422Z,16.22
2022-12-31T10:26:57.591Z,16.39
2022-12-31T10:27:50.363Z,16.41
2022-12-31T10:28:50.364Z,16.37
2022-12-31T10:29:53.174Z,16.24
2022-12-31T10:30:50.581Z,16.36
2022-12-31T10:31:50.342Z,16.34
2022-12-31T10:32:50.380Z,16.44
2022-12-31T10:33:50.354Z,16.43
2022-12-31T10:34:50.365Z,16.49
2022-12-31T10:35:50.377Z,16.49
2022-12-31T10:36:50.357Z,16.43
2022-12-31T10:37:50.421Z,16.46
2022-12-31T10:38:50.389Z,16.46
2022-12-31T10:39:50.334Z,16.49
2022-12-31T10:40:53.345Z,16.5
2022-12-31T10:41:50.331Z,16.54
2022-12-31T10:42:51.467Z,16.51
2022-12-31T10:43:50.389Z,16.51
2022-12-31T10:44:50.382Z,16.51
2022-12-31T10:45:50.638Z,16.58
2022-12-31T10:46:50.576Z,16.55
2022-12-31T10:47:50.363Z,16.58
2022-12-31T10:48:50.397Z,16.65
2022-12-31T10:49:50.393Z,16.62
2022-12-31T10:50:50.388Z,16.68
2022-12-31T10:51:53.462Z,16.69
2022-12-31T10:52:50.395Z,16.77
2022-12-31T10:53:50.442Z,16.72
2022-12-31T10:54:50.365Z,16.79
2022-12-31T10:55:50.381Z,16.82
2022-12-31T10:56:50.387Z,16.77
2022-12-31T10:57:50.375Z,16.83
2022-12-31T10:58:50.424Z,16.8
2022-12-31T10:59:50.395Z,16.8
2022-12-31T11:00:50.390Z,16.86
2022-12-31T11:01:50.822Z,16.94
2022-12-31T11:02:53.698Z,16.94
2022-12-31T11:03:50.623Z,16.89
2022-12-31T11:04:50.413Z,16.98
2022-12-31T11:05:50.388Z,16.95
2022-12-31T11:06:50.390Z,16.97
2022-12-31T11:07:50.516Z,17.05
2022-12-31T11:08:50.459Z,17.05
2022-12-31T11:09:50.435Z,16.99
2022-12-31T11:10:50.422Z,17.13
2022-12-31T11:11:50.500Z,17.09
2022-12-31T11:12:50.380Z,17.02
2022-12-31T11:13:53.806Z,17.1
2022-12-31T11:14:50.417Z,17.13
2022-12-31T11:15:54.929Z,17.09
2022-12-31T11:16:50.407Z,16.99
2022-12-31T11:17:50.401Z,17.1
2022-12-31T11:18:50.428Z,17.07
2022-12-31T11:19:50.429Z,17.12
2022-12-31T11:20:50.433Z,17.1
2022-12-31T11:21:50.440Z,17.19
2022-12-31T11:22:50.543Z,17.23
2022-12-31T11:23:50.580Z,17.2
2022-12-31T11:24:53.371Z,17.2
2022-12-31T11:25:50.533Z,17.24
2022-12-31T11:26:50.559Z,17.3
2022-12-31T11:27:54.138Z,17.32
2022-12-31T11:28:50.419Z,17.2
2022-12-31T11:29:50.433Z,17.2
2022-12-31T11:30:50.599Z,17.24
2022-12-31T11:31:50.497Z,17.17
2022-12-31T11:32:50.483Z,17.14
2022-12-31T11:33:55.129Z,17.2
2022-12-31T11:34:50.485Z,17.19
2022-12-31T11:35:50.457Z,17.28
2022-12-31T11:36:50.501Z,17.13
2022-12-31T11:37:50.497Z,17.16
2022-12-31T11:38:50.456Z,17.16
2022-12-31T11:39:50.728Z,17.24
2022-12-31T11:40:50.488Z,17.22
2022-12-31T11:41:50.450Z,17.16
2022-12-31T11:42:50.493Z,17.13
2022-12-31T11:43:50.507Z,17.14
2022-12-31T11:44:50.451Z,17.13
2022-12-31T11:45:55.101Z,17.13
2022-12-31T11:46:50.602Z,17.16
2022-12-31T11:48:34.706Z,17.14
2022-12-31T11:48:55.368Z,17.16
2022-12-31T11:49:50.497Z,17.17
2022-12-31T11:50:50.457Z,17.24
2022-12-31T11:51:58.276Z,17.17
2022-12-31T11:52:50.474Z,17.23
2022-12-31T11:53:50.477Z,17.28
2022-12-31T11:54:50.481Z,17.2
2022-12-31T11:55:50.545Z,17.19
2022-12-31T11:56:53.315Z,17.27
2022-12-31T11:57:50.486Z,17.3
2022-12-31T11:58:50.484Z,17.3
2022-12-31T11:59:50.487Z,17.35
2022-12-31T12:00:50.493Z,17.31
2022-12-31T12:01:50.484Z,17.35
2022-12-31T12:02:50.614Z,17.34
2022-12-31T12:03:50.606Z,17.35
2022-12-31T12:04:50.499Z,17.41
2022-12-31T12:05:50.507Z,17.5
2022-12-31T12:06:50.502Z,17.49
2022-12-31T12:07:53.670Z,17.47
2022-12-31T12:08:50.503Z,17.52
2022-12-31T12:09:50.520Z,17.54
2022-12-31T12:10:50.495Z,17.54
2022-12-31T12:11:50.548Z,17.54
2022-12-31T12:12:50.523Z,17.49
2022-12-31T12:13:50.515Z,17.57
2022-12-31T12:14:50.506Z,17.49
2022-12-31T12:15:50.849Z,17.52
2022-12-31T12:16:50.630Z,17.54
2022-12-31T12:17:50.526Z,17.53
2022-12-31T12:18:53.397Z,17.56
2022-12-31T12:19:50.580Z,17.53
2022-12-31T12:20:50.587Z,17.6
2022-12-31T12:21:50.603Z,17.69
2022-12-31T12:22:54.122Z,17.59
2022-12-31T12:23:53.587Z,17.63
2022-12-31T12:24:50.532Z,17.68
2022-12-31T12:25:50.539Z,17.82
2022-12-31T12:26:50.539Z,17.75
2022-12-31T12:27:50.569Z,17.72
2022-12-31T12:28:50.550Z,17.73
2022-12-31T12:29:53.336Z,17.75
2022-12-31T12:30:50.556Z,17.78
2022-12-31T12:31:50.724Z,17.79
2022-12-31T12:32:50.542Z,17.76
2022-12-31T12:33:50.591Z,17.82
2022-12-31T12:34:54.682Z,17.87
2022-12-31T12:35:50.554Z,17.86
2022-12-31T12:36:50.558Z,17.75
2022-12-31T12:37:50.589Z,17.82
2022-12-31T12:38:50.560Z,17.94
2022-12-31T12:39:50.555Z,17.82
2022-12-31T12:40:53.313Z,17.94
2022-12-31T12:41:50.581Z,17.86
2022-12-31T12:42:50.596Z,17.88
2022-12-31T12:43:50.637Z,17.84
2022-12-31T12:44:50.651Z,17.9
2022-12-31T12:45:56.920Z,18.03
2022-12-31T12:46:53.135Z,17.97
2022-12-31T12:47:50.560Z,18.05
2022-12-31T12:48:50.566Z,18.12
2022-12-31T12:49:50.670Z,17.98
2022-12-31T12:50:50.590Z,18.02
2022-12-31T12:51:50.605Z,18.15
2022-12-31T12:52:53.810Z,18.21
2022-12-31T12:53:50.629Z,18.19
2022-12-31T12:54:50.601Z,18.18
2022-12-31T12:55:50.577Z,18.18